Fort Hood, Texas
Current Conditions -  °F | °C
As of 4:58 PM on Friday 19 Dec 2014 (Local Time) from KHLR Reporting Station
Haze Haze  
Wind Chill: 43°   Ceiling: 600
Heat Index: 48°   Visibility: 6mi
Dew Point: 46°   Wind: 10mph
Humidity: 95%   Direction: 340°NNW
Pressure: 30.14"   Gusts: NA
Location:  31.2151°N, 97.7405°W
Report Text: KHLR 192258Z AUTO 34009KT 6SM BR OVC006 09/08 A3014 RMK AO2 SLP207 T00880080
Loading
Personal Weather Stations






























Interactive Weather Map New forecast layout! Learn more

10-Day Weather Forecast

Advertisements
Track Severe Weather on mobile